sensor_id;sensor_type;location;lat;lon;timestamp;pressure;altitude;pressure_sealevel;temperature;humidity
76605;BME280;73179;50.978;16.998;2023-12-14T00:00:05;99012.25;;;4.60;96.50
76605;BME280;73179;50.978;16.998;2023-12-14T00:02:33;98868.97;;;3.68;96.52
76605;BME280;73179;50.978;16.998;2023-12-14T00:04:59;98931.25;;;3.94;97.19
76605;BME280;73179;50.978;16.998;2023-12-14T00:07:26;98957.22;;;4.09;96.88
76605;BME280;73179;50.978;16.998;2023-12-14T00:09:52;98922.97;;;3.91;96.96
76605;BME280;73179;50.978;16.998;2023-12-14T00:12:18;99005.63;;;4.38;96.80
76605;BME280;73179;50.978;16.998;2023-12-14T00:14:44;98960.97;;;4.08;96.98
76605;BME280;73179;50.978;16.998;2023-12-14T00:17:10;98970.56;;;4.14;96.64
76605;BME280;73179;50.978;16.998;2023-12-14T00:19:36;99035.34;;;4.46;96.39
76605;BME280;73179;50.978;16.998;2023-12-14T00:22:03;98905.09;;;3.66;96.06
76605;BME280;73179;50.978;16.998;2023-12-14T00:24:29;99013.13;;;4.25;96.07
76605;BME280;73179;50.978;16.998;2023-12-14T00:26:55;98985.09;;;3.98;96.30
76605;BME280;73179;50.978;16.998;2023-12-14T00:29:21;99034.56;;;4.36;96.10
76605;BME280;73179;50.978;16.998;2023-12-14T00:31:47;98992.53;;;4.06;96.01
76605;BME280;73179;50.978;16.998;2023-12-14T00:34:16;98993.66;;;4.05;95.85
76605;BME280;73179;50.978;16.998;2023-12-14T00:40:21;98936.41;;;3.65;96.17
76605;BME280;73179;50.978;16.998;2023-12-14T00:47:27;99080.88;;;4.46;96.01
76605;BME280;73179;50.978;16.998;2023-12-14T00:50:34;98932.66;;;3.41;95.95
76605;BME280;73179;50.978;16.998;2023-12-14T00:53:22;99083.81;;;4.45;95.81
76605;BME280;73179;50.978;16.998;2023-12-14T00:55:48;98962.88;;;3.57;95.16
76605;BME280;73179;50.978;16.998;2023-12-14T01:05:57;99095.88;;;4.37;96.48
76605;BME280;73179;50.978;16.998;2023-12-14T01:12:46;99105.78;;;4.37;96.37
76605;BME280;73179;50.978;16.998;2023-12-14T01:15:12;99013.44;;;3.78;96.33
76605;BME280;73179;50.978;16.998;2023-12-14T01:17:38;99052.81;;;4.03;96.69
76605;BME280;73179;50.978;16.998;2023-12-14T01:20:16;98919.28;;;3.16;96.18
76605;BME280;73179;50.978;16.998;2023-12-14T01:22:42;99013.19;;;3.75;96.32
76605;BME280;73179;50.978;16.998;2023-12-14T01:25:08;99048.25;;;3.89;95.39
76605;BME280;73179;50.978;16.998;2023-12-14T01:31:38;98967.44;;;3.41;95.87
76605;BME280;73179;50.978;16.998;2023-12-14T01:34:47;99069.41;;;4.10;96.31
76605;BME280;73179;50.978;16.998;2023-12-14T01:37:13;98972.53;;;3.53;96.33
76605;BME280;73179;50.978;16.998;2023-12-14T01:39:39;99072.34;;;4.09;96.14
76605;BME280;73179;50.978;16.998;2023-12-14T01:42:05;98901.38;;;3.01;96.39
76605;BME280;73179;50.978;16.998;2023-12-14T01:44:32;98946.28;;;3.24;96.54
76605;BME280;73179;50.978;16.998;2023-12-14T01:46:58;99120.28;;;4.25;96.53
76605;BME280;73179;50.978;16.998;2023-12-14T01:49:24;99001.44;;;3.51;96.53
76605;BME280;73179;50.978;16.998;2023-12-14T01:51:50;99003.56;;;3.69;96.06
76605;BME280;73179;50.978;16.998;2023-12-14T01:54:16;99008.09;;;3.68;96.40
76605;BME280;73179;50.978;16.998;2023-12-14T01:56:42;98948.44;;;3.32;95.72
76605;BME280;73179;50.978;16.998;2023-12-14T01:59:09;99014.78;;;3.71;95.93
76605;BME280;73179;50.978;16.998;2023-12-14T02:01:45;99104.72;;;4.32;95.73
76605;BME280;73179;50.978;16.998;2023-12-14T02:04:13;98932.38;;;3.22;95.57
76605;BME280;73179;50.978;16.998;2023-12-14T02:06:40;99022.56;;;3.82;95.42
76605;BME280;73179;50.978;16.998;2023-12-14T02:09:07;99093.75;;;4.29;95.71
76605;BME280;73179;50.978;16.998;2023-12-14T02:11:34;99055.47;;;3.98;95.97
76605;BME280;73179;50.978;16.998;2023-12-14T02:14:08;99004.09;;;3.61;95.74
76605;BME280;73179;50.978;16.998;2023-12-14T02:16:35;99107.44;;;4.27;95.50
76605;BME280;73179;50.978;16.998;2023-12-14T02:19:05;99016.38;;;3.67;95.72
76605;BME280;73179;50.978;16.998;2023-12-14T02:21:31;99077.16;;;4.02;95.85
76605;BME280;73179;50.978;16.998;2023-12-14T02:23:57;99022.81;;;3.71;96.07
76605;BME280;73179;50.978;16.998;2023-12-14T02:26:23;99061.66;;;3.94;95.86
76605;BME280;73179;50.978;16.998;2023-12-14T02:28:50;99052.25;;;3.76;95.94
76605;BME280;73179;50.978;16.998;2023-12-14T02:31:17;99042.34;;;3.61;95.85
76605;BME280;73179;50.978;16.998;2023-12-14T02:33:47;98998.19;;;3.39;95.75
76605;BME280;73179;50.978;16.998;2023-12-14T02:36:13;98996.03;;;3.30;95.49
76605;BME280;73179;50.978;16.998;2023-12-14T02:38:40;99139.56;;;4.27;95.39
76605;BME280;73179;50.978;16.998;2023-12-14T02:41:06;98982.91;;;3.19;95.94
76605;BME280;73179;50.978;16.998;2023-12-14T02:43:32;99091.88;;;3.79;95.84
76605;BME280;73179;50.978;16.998;2023-12-14T02:45:59;99073.69;;;3.76;96.16
76605;BME280;73179;50.978;16.998;2023-12-14T02:48:28;99020.91;;;3.31;95.95
76605;BME280;73179;50.978;16.998;2023-12-14T02:50:59;99120.25;;;3.95;96.19
76605;BME280;73179;50.978;16.998;2023-12-14T02:53:27;99037.75;;;3.36;96.13
76605;BME280;73179;50.978;16.998;2023-12-14T02:55:53;99097.50;;;3.77;96.20
76605;BME280;73179;50.978;16.998;2023-12-14T02:58:19;99064.84;;;3.55;96.11
76605;BME280;73179;50.978;16.998;2023-12-14T03:00:45;99070.72;;;3.67;95.74
76605;BME280;73179;50.978;16.998;2023-12-14T03:03:12;98981.56;;;3.01;95.58
76605;BME280;73179;50.978;16.998;2023-12-14T03:05:38;99136.31;;;3.95;95.84
76605;BME280;73179;50.978;16.998;2023-12-14T03:08:04;99136.31;;;3.95;95.50
76605;BME280;73179;50.978;16.998;2023-12-14T03:10:30;99155.09;;;4.10;95.67
76605;BME280;73179;50.978;16.998;2023-12-14T03:12:56;99144.34;;;3.95;95.43
76605;BME280;73179;50.978;16.998;2023-12-14T03:15:22;99177.59;;;4.19;95.85
76605;BME280;73179;50.978;16.998;2023-12-14T03:17:49;99096.13;;;3.65;95.97
76605;BME280;73179;50.978;16.998;2023-12-14T03:20:15;99188.84;;;4.21;96.01
76605;BME280;73179;50.978;16.998;2023-12-14T03:22:41;99122.13;;;3.69;96.01
76605;BME280;73179;50.978;16.998;2023-12-14T03:25:09;99202.50;;;4.20;96.01
76605;BME280;73179;50.978;16.998;2023-12-14T03:27:36;99159.09;;;3.93;96.01
76605;BME280;73179;50.978;16.998;2023-12-14T03:30:03;99112.19;;;3.55;95.92
76605;BME280;73179;50.978;16.998;2023-12-14T03:32:34;99171.94;;;3.96;95.62
76605;BME280;73179;50.978;16.998;2023-12-14T03:34:59;99142.50;;;3.86;95.83
76605;BME280;73179;50.978;16.998;2023-12-14T03:37:26;99058.63;;;3.29;95.73
76605;BME280;73179;50.978;16.998;2023-12-14T03:39:52;99138.44;;;3.73;95.80
76605;BME280;73179;50.978;16.998;2023-12-14T03:42:18;99146.22;;;3.79;95.61
76605;BME280;73179;50.978;16.998;2023-12-14T03:44:44;99156.91;;;3.74;95.95
76605;BME280;73179;50.978;16.998;2023-12-14T03:47:10;99134.66;;;3.54;96.13
76605;BME280;73179;50.978;16.998;2023-12-14T03:49:37;99135.19;;;3.61;95.99
76605;BME280;73179;50.978;16.998;2023-12-14T03:52:04;99191.47;;;3.91;95.89
76605;BME280;73179;50.978;16.998;2023-12-14T03:54:30;99143.19;;;3.56;95.92
76605;BME280;73179;50.978;16.998;2023-12-14T03:56:56;99174.56;;;3.75;95.45
76605;BME280;73179;50.978;16.998;2023-12-14T03:59:22;99170.00;;;3.66;95.52
76605;BME280;73179;50.978;16.998;2023-12-14T04:01:49;99179.38;;;3.68;95.58
76605;BME280;73179;50.978;16.998;2023-12-14T04:04:15;99138.88;;;3.34;95.38
76605;BME280;73179;50.978;16.998;2023-12-14T04:06:41;99165.94;;;3.53;95.61
76605;BME280;73179;50.978;16.998;2023-12-14T04:09:07;99187.13;;;3.75;95.37
76605;BME280;73179;50.978;16.998;2023-12-14T04:11:33;99201.88;;;3.72;95.54
76605;BME280;73179;50.978;16.998;2023-12-14T04:13:59;99211.81;;;3.87;95.17
76605;BME280;73179;50.978;16.998;2023-12-14T04:16:26;99235.66;;;3.94;95.01
76605;BME280;73179;50.978;16.998;2023-12-14T04:18:54;99232.66;;;3.80;94.49
76605;BME280;73179;50.978;16.998;2023-12-14T04:21:23;99276.97;;;4.23;94.36
76605;BME280;73179;50.978;16.998;2023-12-14T04:23:50;99245.31;;;4.00;94.53
76605;BME280;73179;50.978;16.998;2023-12-14T04:26:17;99223.81;;;3.79;94.68
76605;BME280;73179;50.978;16.998;2023-12-14T04:28:43;99181.19;;;3.53;94.38
76605;BME280;73179;50.978;16.998;2023-12-14T04:31:11;99210.72;;;3.78;94.64
76605;BME280;73179;50.978;16.998;2023-12-14T04:33:37;99202.13;;;3.66;94.85
76605;BME280;73179;50.978;16.998;2023-12-14T04:36:03;99238.81;;;3.80;94.93
76605;BME280;73179;50.978;16.998;2023-12-14T04:38:29;99208.78;;;3.63;94.56
76605;BME280;73179;50.978;16.998;2023-12-14T04:40:56;99289.28;;;4.19;95.50
76605;BME280;73179;50.978;16.998;2023-12-14T04:43:21;99218.69;;;3.68;95.35
76605;BME280;73179;50.978;16.998;2023-12-14T04:45:48;99284.41;;;4.06;95.23
76605;BME280;73179;50.978;16.998;2023-12-14T04:48:14;99227.78;;;3.67;94.81
76605;BME280;73179;50.978;16.998;2023-12-14T04:50:42;99218.69;;;3.63;95.05
76605;BME280;73179;50.978;16.998;2023-12-14T04:53:08;99300.53;;;4.16;95.35
76605;BME280;73179;50.978;16.998;2023-12-14T04:55:36;99225.63;;;3.64;95.50
76605;BME280;73179;50.978;16.998;2023-12-14T04:58:02;99213.28;;;3.53;94.89
76605;BME280;73179;50.978;16.998;2023-12-14T05:00:28;99236.91;;;3.66;95.25
76605;BME280;73179;50.978;16.998;2023-12-14T05:02:54;99226.94;;;3.51;95.53
76605;BME280;73179;50.978;16.998;2023-12-14T05:05:21;99223.75;;;3.54;95.58
76605;BME280;73179;50.978;16.998;2023-12-14T05:07:47;99303.44;;;4.04;95.62
76605;BME280;73179;50.978;16.998;2023-12-14T05:10:13;99235.75;;;3.52;96.07
76605;BME280;73179;50.978;16.998;2023-12-14T05:12:39;99252.44;;;3.69;95.92
76605;BME280;73179;50.978;16.998;2023-12-14T05:15:06;99255.88;;;3.64;95.93
76605;BME280;73179;50.978;16.998;2023-12-14T05:17:32;99196.31;;;3.22;96.32
76605;BME280;73179;50.978;16.998;2023-12-14T05:20:00;99299.03;;;3.83;96.86
76605;BME280;73179;50.978;16.998;2023-12-14T05:22:26;99248.03;;;3.43;96.74
76605;BME280;73179;50.978;16.998;2023-12-14T05:24:53;99245.31;;;3.38;96.70
76605;BME280;73179;50.978;16.998;2023-12-14T05:27:19;99263.88;;;3.54;96.44
76605;BME280;73179;50.978;16.998;2023-12-14T05:29:46;99315.63;;;3.80;96.49
76605;BME280;73179;50.978;16.998;2023-12-14T05:32:12;99303.31;;;3.79;96.40
76605;BME280;73179;50.978;16.998;2023-12-14T05:34:38;99330.16;;;3.94;96.76
76605;BME280;73179;50.978;16.998;2023-12-14T05:37:07;99275.34;;;3.50;96.61
76605;BME280;73179;50.978;16.998;2023-12-14T05:39:36;99250.63;;;3.32;96.45
76605;BME280;73179;50.978;16.998;2023-12-14T05:42:02;99274.25;;;3.46;96.03
76605;BME280;73179;50.978;16.998;2023-12-14T05:44:28;99300.78;;;3.52;96.41
76605;BME280;73179;50.978;16.998;2023-12-14T05:46:54;99352.59;;;3.83;96.35
76605;BME280;73179;50.978;16.998;2023-12-14T05:49:21;99297.81;;;3.44;95.96
76605;BME280;73179;50.978;16.998;2023-12-14T05:51:47;99318.69;;;3.52;96.49
76605;BME280;73179;50.978;16.998;2023-12-14T05:54:13;99258.28;;;3.14;96.28
76605;BME280;73179;50.978;16.998;2023-12-14T05:56:39;99378.25;;;3.79;96.23
76605;BME280;73179;50.978;16.998;2023-12-14T05:59:05;99307.06;;;3.31;95.99
76605;BME280;73179;50.978;16.998;2023-12-14T06:01:31;99335.25;;;3.49;96.17
76605;BME280;73179;50.978;16.998;2023-12-14T06:03:57;99356.22;;;3.62;96.63
76605;BME280;73179;50.978;16.998;2023-12-14T06:06:23;99323.13;;;3.36;96.39
76605;BME280;73179;50.978;16.998;2023-12-14T06:08:50;99371.25;;;3.68;96.24
76605;BME280;73179;50.978;16.998;2023-12-14T06:11:16;99363.13;;;3.53;96.38
76605;BME280;73179;50.978;16.998;2023-12-14T06:13:42;99338.94;;;3.38;96.65
76605;BME280;73179;50.978;16.998;2023-12-14T06:16:08;99295.47;;;3.15;96.11
76605;BME280;73179;50.978;16.998;2023-12-14T06:18:40;99370.13;;;3.64;95.98
76605;BME280;73179;50.978;16.998;2023-12-14T06:21:07;99358.56;;;3.53;95.90
76605;BME280;73179;50.978;16.998;2023-12-14T06:23:35;99350.75;;;3.42;95.20
76605;BME280;73179;50.978;16.998;2023-12-14T06:26:04;99400.16;;;3.71;95.67
76605;BME280;73179;50.978;16.998;2023-12-14T06:28:31;99351.25;;;3.39;95.95
76605;BME280;73179;50.978;16.998;2023-12-14T06:30:58;99373.28;;;3.51;95.88
76605;BME280;73179;50.978;16.998;2023-12-14T06:33:27;99385.03;;;3.50;96.20
76605;BME280;73179;50.978;16.998;2023-12-14T06:35:53;99357.88;;;3.31;95.67
76605;BME280;73179;50.978;16.998;2023-12-14T06:38:19;99407.34;;;3.65;95.94
76605;BME280;73179;50.978;16.998;2023-12-14T06:40:45;99372.66;;;3.39;96.14
76605;BME280;73179;50.978;16.998;2023-12-14T06:43:12;99351.06;;;3.13;96.02
76605;BME280;73179;50.978;16.998;2023-12-14T06:45:38;99359.97;;;3.24;95.46
76605;BME280;73179;50.978;16.998;2023-12-14T06:48:04;99309.72;;;2.89;95.80
76605;BME280;73179;50.978;16.998;2023-12-14T06:50:31;99336.28;;;3.06;96.11
76605;BME280;73179;50.978;16.998;2023-12-14T06:52:57;99406.19;;;3.51;96.16
76605;BME280;73179;50.978;16.998;2023-12-14T06:55:25;99373.84;;;3.21;96.30
76605;BME280;73179;50.978;16.998;2023-12-14T06:57:51;99364.41;;;3.13;96.28
76605;BME280;73179;50.978;16.998;2023-12-14T07:00:17;99411.44;;;3.41;95.66
76605;BME280;73179;50.978;16.998;2023-12-14T07:02:44;99388.94;;;3.32;96.32
76605;BME280;73179;50.978;16.998;2023-12-14T07:05:10;99417.16;;;3.50;95.43
76605;BME280;73179;50.978;16.998;2023-12-14T07:07:36;99473.50;;;3.75;95.86
76605;BME280;73179;50.978;16.998;2023-12-14T07:10:02;99459.53;;;3.63;95.91
76605;BME280;73179;50.978;16.998;2023-12-14T07:12:29;99493.63;;;3.77;96.13
76605;BME280;73179;50.978;16.998;2023-12-14T07:14:55;99479.09;;;3.68;96.41
76605;BME280;73179;50.978;16.998;2023-12-14T07:17:22;99523.41;;;3.86;96.59
76605;BME280;73179;50.978;16.998;2023-12-14T07:19:50;99426.06;;;3.28;95.97
76605;BME280;73179;50.978;16.998;2023-12-14T07:22:17;99491.31;;;3.59;96.00
76605;BME280;73179;50.978;16.998;2023-12-14T07:24:43;99408.22;;;3.07;96.29
76605;BME280;73179;50.978;16.998;2023-12-14T07:27:10;99411.19;;;3.11;96.62
76605;BME280;73179;50.978;16.998;2023-12-14T07:29:36;99449.00;;;3.24;96.31
76605;BME280;73179;50.978;16.998;2023-12-14T07:32:02;99468.06;;;3.28;96.66
76605;BME280;73179;50.978;16.998;2023-12-14T07:34:28;99505.06;;;3.41;96.98
76605;BME280;73179;50.978;16.998;2023-12-14T07:36:55;99391.09;;;2.76;97.36
76605;BME280;73179;50.978;16.998;2023-12-14T07:39:21;99415.75;;;2.83;97.33
76605;BME280;73179;50.978;16.998;2023-12-14T07:41:47;99436.38;;;2.88;97.67
76605;BME280;73179;50.978;16.998;2023-12-14T07:44:13;99385.00;;;2.54;98.37
76605;BME280;73179;50.978;16.998;2023-12-14T07:46:42;99564.97;;;3.67;98.22
76605;BME280;73179;50.978;16.998;2023-12-14T07:49:08;99573.34;;;3.70;98.63
76605;BME280;73179;50.978;16.998;2023-12-14T07:51:35;99485.84;;;3.17;98.87
76605;BME280;73179;50.978;16.998;2023-12-14T07:54:01;99533.50;;;3.47;99.04
76605;BME280;73179;50.978;16.998;2023-12-14T07:56:30;99414.28;;;2.71;98.56
76605;BME280;73179;50.978;16.998;2023-12-14T07:58:58;99409.94;;;2.65;98.42
76605;BME280;73179;50.978;16.998;2023-12-14T08:01:24;99454.06;;;2.94;98.33
76605;BME280;73179;50.978;16.998;2023-12-14T08:03:51;99481.78;;;3.10;97.80
76605;BME280;73179;50.978;16.998;2023-12-14T08:06:20;99560.28;;;3.52;97.22
76605;BME280;73179;50.978;16.998;2023-12-14T08:08:46;99462.66;;;2.96;97.32
76605;BME280;73179;50.978;16.998;2023-12-14T08:11:12;99532.56;;;3.31;97.66
76605;BME280;73179;50.978;16.998;2023-12-14T08:13:38;99548.19;;;3.45;97.09
76605;BME280;73179;50.978;16.998;2023-12-14T08:16:05;99525.56;;;3.30;97.61
76605;BME280;73179;50.978;16.998;2023-12-14T08:18:31;99531.16;;;3.29;97.25
76605;BME280;73179;50.978;16.998;2023-12-14T08:20:57;99587.47;;;3.66;97.13
76605;BME280;73179;50.978;16.998;2023-12-14T08:23:23;99554.63;;;3.44;96.67
76605;BME280;73179;50.978;16.998;2023-12-14T08:25:53;99536.88;;;3.38;97.16
76605;BME280;73179;50.978;16.998;2023-12-14T08:28:24;99468.75;;;2.92;96.94
76605;BME280;73179;50.978;16.998;2023-12-14T08:30:51;99623.50;;;3.85;97.32
76605;BME280;73179;50.978;16.998;2023-12-14T08:33:17;99580.03;;;3.46;97.03
76605;BME280;73179;50.978;16.998;2023-12-14T08:35:44;99494.97;;;2.95;96.92
76605;BME280;73179;50.978;16.998;2023-12-14T08:38:10;99547.94;;;3.19;97.23
76605;BME280;73179;50.978;16.998;2023-12-14T08:40:39;99629.69;;;3.59;96.65
76605;BME280;73179;50.978;16.998;2023-12-14T08:43:05;99564.00;;;3.24;96.53
76605;BME280;73179;50.978;16.998;2023-12-14T08:45:34;99461.97;;;2.57;96.85
76605;BME280;73179;50.978;16.998;2023-12-14T08:48:00;99546.06;;;2.98;97.16
76605;BME280;73179;50.978;16.998;2023-12-14T08:50:28;99583.50;;;3.20;97.13
76605;BME280;73179;50.978;16.998;2023-12-14T08:52:57;99587.59;;;3.27;96.67
76605;BME280;73179;50.978;16.998;2023-12-14T08:55:27;99475.63;;;2.61;96.75
76605;BME280;73179;50.978;16.998;2023-12-14T08:57:53;99523.75;;;2.87;96.85
76605;BME280;73179;50.978;16.998;2023-12-14T09:00:20;99561.16;;;3.09;97.37
76605;BME280;73179;50.978;16.998;2023-12-14T09:02:46;99534.97;;;2.84;96.67
76605;BME280;73179;50.978;16.998;2023-12-14T09:05:16;99636.03;;;3.53;96.67
76605;BME280;73179;50.978;16.998;2023-12-14T09:07:47;99564.41;;;3.11;96.97
76605;BME280;73179;50.978;16.998;2023-12-14T09:10:16;99564.31;;;3.01;96.71
76605;BME280;73179;50.978;16.998;2023-12-14T09:12:44;99534.66;;;2.81;96.64
76605;BME280;73179;50.978;16.998;2023-12-14T09:15:10;99618.75;;;3.39;97.23
76605;BME280;73179;50.978;16.998;2023-12-14T09:17:36;99581.00;;;3.13;97.01
76605;BME280;73179;50.978;16.998;2023-12-14T09:20:04;99703.00;;;3.84;97.30
76605;BME280;73179;50.978;16.998;2023-12-14T09:22:31;99576.91;;;3.06;97.28
76605;BME280;73179;50.978;16.998;2023-12-14T09:24:57;99558.00;;;2.91;97.04
76605;BME280;73179;50.978;16.998;2023-12-14T09:27:24;99560.38;;;2.87;96.88
76605;BME280;73179;50.978;16.998;2023-12-14T09:29:50;99632.56;;;3.30;97.22
76605;BME280;73179;50.978;16.998;2023-12-14T09:32:16;99581.31;;;2.95;96.58
76605;BME280;73179;50.978;16.998;2023-12-14T09:34:46;99667.63;;;3.56;96.50
76605;BME280;73179;50.978;16.998;2023-12-14T09:37:12;99601.53;;;3.08;96.90
76605;BME280;73179;50.978;16.998;2023-12-14T09:40:06;99624.75;;;3.24;96.96
76605;BME280;73179;50.978;16.998;2023-12-14T09:43:19;99596.00;;;3.14;97.26
76605;BME280;73179;50.978;16.998;2023-12-14T09:45:56;99623.97;;;3.28;96.78
76605;BME280;73179;50.978;16.998;2023-12-14T09:48:23;99529.06;;;2.61;96.91
76605;BME280;73179;50.978;16.998;2023-12-14T09:50:55;99673.63;;;3.63;96.96
76605;BME280;73179;50.978;16.998;2023-12-14T09:53:22;99723.06;;;3.82;96.82
76605;BME280;73179;50.978;16.998;2023-12-14T09:55:51;99582.44;;;2.99;96.43
76605;BME280;73179;50.978;16.998;2023-12-14T09:58:20;99588.81;;;2.93;96.79
76605;BME280;73179;50.978;16.998;2023-12-14T10:00:46;99671.38;;;3.55;96.80
76605;BME280;73179;50.978;16.998;2023-12-14T10:03:21;99639.84;;;3.35;96.21
76605;BME280;73179;50.978;16.998;2023-12-14T10:05:49;99613.72;;;3.20;96.45
76605;BME280;73179;50.978;16.998;2023-12-14T10:08:16;99726.38;;;3.89;96.79
76605;BME280;73179;50.978;16.998;2023-12-14T10:10:47;99513.53;;;2.58;96.24
76605;BME280;73179;50.978;16.998;2023-12-14T10:13:21;99600.22;;;3.10;96.50
76605;BME280;73179;50.978;16.998;2023-12-14T10:15:48;99649.41;;;3.31;96.58
76605;BME280;73179;50.978;16.998;2023-12-14T10:18:24;99535.94;;;2.57;96.10
76605;BME280;73179;50.978;16.998;2023-12-14T10:20:51;99693.19;;;3.68;96.13
76605;BME280;73179;50.978;16.998;2023-12-14T10:23:19;99666.69;;;3.45;96.26
76605;BME280;73179;50.978;16.998;2023-12-14T10:25:46;99647.50;;;3.26;95.98
76605;BME280;73179;50.978;16.998;2023-12-14T10:28:15;99573.34;;;2.78;96.32
76605;BME280;73179;50.978;16.998;2023-12-14T10:30:43;99692.72;;;3.50;96.44
76605;BME280;73179;50.978;16.998;2023-12-14T10:33:09;99545.59;;;2.58;96.29
76605;BME280;73179;50.978;16.998;2023-12-14T10:35:36;99635.59;;;3.17;96.26
76605;BME280;73179;50.978;16.998;2023-12-14T10:38:04;99697.94;;;3.61;96.35
76605;BME280;73179;50.978;16.998;2023-12-14T10:40:32;99646.28;;;3.17;96.27
76605;BME280;73179;50.978;16.998;2023-12-14T10:42:59;99724.19;;;3.64;96.68
76605;BME280;73179;50.978;16.998;2023-12-14T10:45:32;99709.38;;;3.57;96.63
76605;BME280;73179;50.978;16.998;2023-12-14T10:48:00;99623.66;;;3.03;96.69
76605;BME280;73179;50.978;16.998;2023-12-14T10:50:30;99766.31;;;3.96;96.95
76605;BME280;73179;50.978;16.998;2023-12-14T10:53:01;99600.22;;;2.88;97.05
76605;BME280;73179;50.978;16.998;2023-12-14T10:55:38;99663.97;;;3.18;96.74
76605;BME280;73179;50.978;16.998;2023-12-14T10:58:08;99702.22;;;3.41;96.13
76605;BME280;73179;50.978;16.998;2023-12-14T11:00:36;99571.56;;;2.62;96.69
76605;BME280;73179;50.978;16.998;2023-12-14T11:03:13;99633.34;;;2.87;96.43
76605;BME280;73179;50.978;16.998;2023-12-14T11:05:40;99696.63;;;3.20;96.42
76605;BME280;73179;50.978;16.998;2023-12-14T11:08:06;99688.53;;;3.15;96.47
76605;BME280;73179;50.978;16.998;2023-12-14T11:10:42;99615.97;;;2.68;97.00
76605;BME280;73179;50.978;16.998;2023-12-14T11:13:11;99777.09;;;3.79;96.73
76605;BME280;73179;50.978;16.998;2023-12-14T11:15:39;99735.84;;;3.53;96.29
76605;BME280;73179;50.978;16.998;2023-12-14T11:20:59;99682.88;;;3.12;96.43
76605;BME280;73179;50.978;16.998;2023-12-14T11:26:09;99766.88;;;3.54;96.20
76605;BME280;73179;50.978;16.998;2023-12-14T11:28:38;99685.41;;;3.02;96.58
76605;BME280;73179;50.978;16.998;2023-12-14T11:31:05;99680.22;;;2.95;96.94
76605;BME280;73179;50.978;16.998;2023-12-14T11:33:35;99737.28;;;3.22;97.09
76605;BME280;73179;50.978;16.998;2023-12-14T11:36:02;99716.00;;;3.11;96.84
76605;BME280;73179;50.978;16.998;2023-12-14T11:38:30;99659.13;;;2.77;96.85
76605;BME280;73179;50.978;16.998;2023-12-14T11:40:58;99739.75;;;3.24;96.91
76605;BME280;73179;50.978;16.998;2023-12-14T11:43:24;99794.94;;;3.52;97.00
76605;BME280;73179;50.978;16.998;2023-12-14T11:45:53;99645.38;;;2.52;97.21
76605;BME280;73179;50.978;16.998;2023-12-14T11:48:20;99748.81;;;3.23;96.71
76605;BME280;73179;50.978;16.998;2023-12-14T11:50:47;99677.25;;;2.75;96.53
76605;BME280;73179;50.978;16.998;2023-12-14T11:53:13;99756.25;;;3.21;96.63
76605;BME280;73179;50.978;16.998;2023-12-14T11:55:42;99718.22;;;2.97;96.41
76605;BME280;73179;50.978;16.998;2023-12-14T11:58:12;99729.47;;;2.99;96.43
76605;BME280;73179;50.978;16.998;2023-12-14T12:00:43;99740.81;;;3.06;96.77
76605;BME280;73179;50.978;16.998;2023-12-14T12:03:12;99659.91;;;2.39;96.06
76605;BME280;73179;50.978;16.998;2023-12-14T12:05:42;99855.72;;;3.73;96.80
76605;BME280;73179;50.978;16.998;2023-12-14T12:08:09;99641.44;;;2.37;96.66
76605;BME280;73179;50.978;16.998;2023-12-14T12:10:38;99771.94;;;3.12;96.95
76605;BME280;73179;50.978;16.998;2023-12-14T12:13:07;99733.56;;;2.85;96.75
76605;BME280;73179;50.978;16.998;2023-12-14T12:15:35;99663.63;;;2.38;96.53
76605;BME280;73179;50.978;16.998;2023-12-14T12:18:06;99742.72;;;2.89;96.94
76605;BME280;73179;50.978;16.998;2023-12-14T12:20:33;99854.63;;;3.52;96.48
76605;BME280;73179;50.978;16.998;2023-12-14T12:23:03;99681.19;;;2.34;96.92
76605;BME280;73179;50.978;16.998;2023-12-14T12:25:33;99664.56;;;2.32;96.76
76605;BME280;73179;50.978;16.998;2023-12-14T12:28:01;99727.72;;;2.71;96.27
76605;BME280;73179;50.978;16.998;2023-12-14T12:30:30;99703.69;;;2.55;96.18
76605;BME280;73179;50.978;16.998;2023-12-14T12:32:57;99673.72;;;2.36;95.92
76605;BME280;73179;50.978;16.998;2023-12-14T12:35:25;99760.28;;;2.85;96.13
76605;BME280;73179;50.978;16.998;2023-12-14T12:37:51;99831.22;;;3.26;96.06
76605;BME280;73179;50.978;16.998;2023-12-14T12:40:24;99779.13;;;2.95;96.52
76605;BME280;73179;50.978;16.998;2023-12-14T12:42:55;99698.25;;;2.33;96.68
76605;BME280;73179;50.978;16.998;2023-12-14T12:45:22;99749.03;;;2.66;96.10
76605;BME280;73179;50.978;16.998;2023-12-14T12:47:53;99850.19;;;3.24;95.77
76605;BME280;73179;50.978;16.998;2023-12-14T12:50:20;99864.28;;;3.36;96.11
76605;BME280;73179;50.978;16.998;2023-12-14T12:52:46;99695.75;;;2.26;95.82
76605;BME280;73179;50.978;16.998;2023-12-14T12:55:15;99908.94;;;3.53;95.99
76605;BME280;73179;50.978;16.998;2023-12-14T12:57:43;99701.63;;;2.28;95.83
76605;BME280;73179;50.978;16.998;2023-12-14T13:00:10;99775.09;;;2.76;95.89
76605;BME280;73179;50.978;16.998;2023-12-14T13:02:38;99778.75;;;2.70;95.24
76605;BME280;73179;50.978;16.998;2023-12-14T13:05:08;99850.25;;;3.13;94.73
76605;BME280;73179;50.978;16.998;2023-12-14T13:07:36;99840.78;;;3.05;94.80
76605;BME280;73179;50.978;16.998;2023-12-14T13:10:04;99795.56;;;2.87;94.37
76605;BME280;73179;50.978;16.998;2023-12-14T13:12:32;99774.19;;;2.70;95.03
76605;BME280;73179;50.978;16.998;2023-12-14T13:14:59;99699.34;;;2.20;94.62
76605;BME280;73179;50.978;16.998;2023-12-14T13:17:26;99796.69;;;2.74;94.74
76605;BME280;73179;50.978;16.998;2023-12-14T13:19:52;99924.50;;;3.56;95.15
76605;BME280;73179;50.978;16.998;2023-12-14T13:22:19;99700.97;;;2.05;94.95
76605;BME280;73179;50.978;16.998;2023-12-14T13:24:46;99847.34;;;2.98;95.06
76605;BME280;73179;50.978;16.998;2023-12-14T13:27:15;99913.00;;;3.22;95.56
76605;BME280;73179;50.978;16.998;2023-12-14T13:29:42;99831.69;;;2.73;95.07
76605;BME280;73179;50.978;16.998;2023-12-14T13:32:09;99754.75;;;2.13;95.17